createdAt,value
2024-02-13T00:01:43.231Z,99.90
2024-02-13T00:04:15.340Z,99.90
2024-02-13T00:06:42.629Z,99.90
2024-02-13T00:09:09.675Z,99.90
2024-02-13T00:11:36.139Z,99.90
2024-02-13T00:14:03.284Z,99.90
2024-02-13T00:16:29.602Z,99.90
2024-02-13T00:19:01.739Z,99.90
2024-02-13T00:21:28.473Z,99.90
2024-02-13T00:23:57.062Z,99.90
2024-02-13T00:26:24.127Z,99.90
2024-02-13T00:28:50.373Z,99.90
2024-02-13T00:31:16.565Z,99.90
2024-02-13T00:33:43.219Z,99.90
2024-02-13T00:36:09.864Z,99.90
2024-02-13T00:38:36.553Z,99.90
2024-02-13T00:41:04.874Z,99.90
2024-02-13T00:43:31.556Z,99.90
2024-02-13T00:45:57.925Z,99.90
2024-02-13T00:48:27.312Z,99.90
2024-02-13T00:50:54.585Z,99.90
2024-02-13T00:53:21.062Z,99.90
2024-02-13T00:55:48.471Z,99.90
2024-02-13T00:58:17.776Z,99.90
2024-02-13T01:00:44.316Z,99.90
2024-02-13T01:03:11.489Z,99.90
2024-02-13T01:05:41.371Z,99.90
2024-02-13T01:08:08.281Z,99.90
2024-02-13T01:10:34.654Z,99.90
2024-02-13T01:13:01.076Z,99.90
2024-02-13T01:15:29.953Z,99.90
2024-02-13T01:17:56.418Z,99.90
2024-02-13T01:20:24.639Z,99.90
2024-02-13T01:22:54.350Z,99.90
2024-02-13T01:25:20.725Z,99.90
2024-02-13T01:27:47.036Z,99.90
2024-02-13T01:30:16.021Z,99.90
2024-02-13T01:32:42.623Z,99.90
2024-02-13T01:35:09.636Z,99.90
2024-02-13T01:37:36.012Z,99.90
2024-02-13T01:40:06.142Z,99.90
2024-02-13T01:42:37.705Z,99.90
2024-02-13T01:45:07.380Z,99.90
2024-02-13T01:47:35.015Z,99.90
2024-02-13T01:50:01.678Z,99.90
2024-02-13T01:52:28.377Z,99.90
2024-02-13T01:54:54.924Z,99.90
2024-02-13T01:57:23.587Z,99.90
2024-02-13T01:59:49.897Z,99.90
2024-02-13T02:02:17.002Z,99.90
2024-02-13T02:04:44.079Z,99.90
2024-02-13T02:07:11.024Z,99.90
2024-02-13T02:09:37.392Z,99.90
2024-02-13T02:12:04.955Z,99.90
2024-02-13T02:14:31.164Z,99.90
2024-02-13T02:17:06.524Z,99.90
2024-02-13T02:19:32.828Z,99.90
2024-02-13T02:21:59.246Z,99.90
2024-02-13T02:24:27.302Z,99.90
2024-02-13T02:26:54.802Z,99.90
2024-02-13T02:29:21.204Z,99.90
2024-02-13T02:31:49.016Z,99.90
2024-02-13T02:34:19.271Z,99.90
2024-02-13T02:36:46.287Z,99.90
2024-02-13T02:39:12.524Z,99.90
2024-02-13T02:41:38.897Z,99.90
2024-02-13T02:44:06.626Z,99.90
2024-02-13T02:46:33.217Z,99.90
2024-02-13T02:48:59.702Z,99.90
2024-02-13T02:51:25.966Z,99.90
2024-02-13T02:53:52.429Z,99.90
2024-02-13T02:56:18.862Z,99.90
2024-02-13T02:58:45.262Z,99.90
2024-02-13T03:01:12.593Z,99.90
2024-02-13T03:03:38.765Z,99.90
2024-02-13T03:06:08.031Z,99.90
2024-02-13T03:08:34.481Z,99.90
2024-02-13T03:11:00.855Z,99.90
2024-02-13T03:13:27.139Z,99.90
2024-02-13T03:15:53.540Z,99.90
2024-02-13T03:18:20.259Z,99.90
2024-02-13T03:20:47.043Z,99.90
2024-02-13T03:23:13.378Z,99.90
2024-02-13T03:25:39.745Z,99.90
2024-02-13T03:28:06.145Z,99.90
2024-02-13T03:30:32.483Z,99.90
2024-02-13T03:33:01.348Z,99.90
2024-02-13T03:35:30.538Z,99.90
2024-02-13T03:37:56.676Z,99.90
2024-02-13T03:40:23.023Z,99.90
2024-02-13T03:42:49.396Z,99.90
2024-02-13T03:45:15.854Z,99.90
2024-02-13T03:47:42.267Z,99.90
2024-02-13T03:50:08.659Z,99.90
2024-02-13T03:52:36.557Z,99.90
2024-02-13T03:55:06.028Z,99.90
2024-02-13T03:57:32.329Z,99.90
2024-02-13T03:59:59.592Z,99.90
2024-02-13T04:02:26.814Z,99.90
2024-02-13T04:04:53.005Z,99.90
2024-02-13T04:07:19.105Z,99.90
2024-02-13T04:09:45.489Z,99.90
2024-02-13T04:12:11.878Z,99.90
2024-02-13T04:14:38.596Z,99.90
2024-02-13T04:17:04.920Z,99.90
2024-02-13T04:19:31.284Z,99.90
2024-02-13T04:21:57.599Z,99.90
2024-02-13T04:24:23.893Z,99.90
2024-02-13T04:26:51.094Z,99.90
2024-02-13T04:29:17.665Z,99.90
2024-02-13T04:31:44.032Z,99.90
2024-02-13T04:34:10.744Z,99.90
2024-02-13T04:36:38.754Z,99.90
2024-02-13T04:39:07.658Z,99.90
2024-02-13T04:41:34.078Z,99.90
2024-02-13T04:44:00.423Z,99.90
2024-02-13T04:46:27.160Z,99.90
2024-02-13T04:48:53.627Z,99.90
2024-02-13T04:51:20.288Z,99.90
2024-02-13T04:53:46.771Z,99.90
2024-02-13T04:56:14.515Z,99.90
2024-02-13T04:58:40.724Z,99.90
2024-02-13T05:01:08.990Z,99.90
2024-02-13T05:03:47.838Z,99.90
2024-02-13T05:06:33.156Z,99.90
2024-02-13T05:08:59.538Z,99.90
2024-02-13T05:11:28.868Z,99.90
2024-02-13T05:13:58.903Z,99.90
2024-02-13T05:16:30.243Z,99.90
2024-02-13T05:18:56.849Z,99.90
2024-02-13T05:21:24.561Z,99.90
2024-02-13T05:23:51.084Z,99.90
2024-02-13T05:26:20.779Z,99.90
2024-02-13T05:28:47.765Z,99.90
2024-02-13T05:31:14.168Z,99.90
2024-02-13T05:33:40.799Z,99.90
2024-02-13T05:36:10.294Z,99.90
2024-02-13T05:38:40.299Z,99.90
2024-02-13T05:41:06.816Z,99.90
2024-02-13T05:43:33.794Z,99.90
2024-02-13T05:45:59.982Z,99.90
2024-02-13T05:48:26.484Z,99.90
2024-02-13T05:50:52.976Z,99.90
2024-02-13T05:53:19.801Z,99.90
2024-02-13T05:55:46.057Z,99.90
2024-02-13T05:58:12.287Z,99.90
2024-02-13T06:00:38.651Z,99.90
2024-02-13T06:03:07.227Z,99.90
2024-02-13T06:05:34.188Z,99.90
2024-02-13T06:08:01.171Z,99.90
2024-02-13T06:10:28.678Z,99.90
2024-02-13T06:12:57.278Z,99.90
2024-02-13T06:15:23.496Z,99.90
2024-02-13T06:17:49.873Z,99.90
2024-02-13T06:20:18.477Z,99.90
2024-02-13T06:22:45.014Z,99.90
2024-02-13T06:25:12.910Z,99.90
2024-02-13T06:27:39.228Z,99.90
2024-02-13T06:30:07.672Z,99.90
2024-02-13T06:32:34.055Z,99.90
2024-02-13T06:35:00.224Z,99.90
2024-02-13T06:37:26.391Z,99.90
2024-02-13T06:39:52.484Z,99.90
2024-02-13T06:42:19.631Z,99.90
2024-02-13T06:44:47.020Z,99.90
2024-02-13T06:47:13.415Z,99.90
2024-02-13T06:49:39.758Z,99.90
2024-02-13T06:52:06.753Z,99.90
2024-02-13T06:54:32.914Z,99.90
2024-02-13T06:56:59.335Z,99.90
2024-02-13T06:59:27.692Z,99.90
2024-02-13T07:01:54.017Z,99.90
2024-02-13T07:04:20.201Z,99.90
2024-02-13T07:06:58.637Z,99.90
2024-02-13T07:09:34.189Z,99.90
2024-02-13T07:12:00.400Z,99.90
2024-02-13T07:14:29.666Z,99.90
2024-02-13T07:16:57.984Z,99.90
2024-02-13T07:19:25.865Z,99.90
2024-02-13T07:21:52.326Z,99.90
2024-02-13T07:24:18.823Z,99.90
2024-02-13T07:26:44.979Z,99.90
2024-02-13T07:29:11.616Z,99.90
2024-02-13T07:31:37.743Z,99.90
2024-02-13T07:34:04.585Z,99.90
2024-02-13T07:36:31.084Z,99.90
2024-02-13T07:38:57.292Z,99.90
2024-02-13T07:41:23.697Z,99.90
2024-02-13T07:43:49.974Z,99.90
2024-02-13T07:46:16.151Z,99.90
2024-02-13T07:48:43.603Z,99.90
2024-02-13T07:51:10.069Z,99.90
2024-02-13T07:53:36.189Z,99.90
2024-02-13T07:56:02.367Z,99.90
2024-02-13T07:58:28.469Z,99.90
2024-02-13T08:00:54.709Z,99.90
2024-02-13T08:03:21.560Z,99.90
2024-02-13T08:05:47.742Z,99.90
2024-02-13T08:08:13.935Z,99.90
2024-02-13T08:10:41.609Z,99.90
2024-02-13T08:13:07.896Z,99.90
2024-02-13T08:15:34.153Z,99.90
2024-02-13T08:18:01.951Z,99.90
2024-02-13T08:20:28.245Z,99.90
2024-02-13T08:22:54.718Z,99.90
2024-02-13T08:25:20.870Z,99.90
2024-02-13T08:27:47.112Z,99.90
2024-02-13T08:30:13.627Z,99.90
2024-02-13T08:32:41.780Z,99.90
2024-02-13T08:35:09.024Z,99.90
2024-02-13T08:37:36.526Z,99.90
2024-02-13T08:40:03.070Z,99.90
2024-02-13T08:42:30.193Z,99.90
2024-02-13T08:44:58.317Z,99.90
2024-02-13T08:47:24.635Z,99.90
2024-02-13T08:49:51.007Z,99.90
2024-02-13T08:52:18.024Z,99.90
2024-02-13T08:54:44.364Z,99.90
2024-02-13T08:57:14.611Z,99.90
2024-02-13T08:59:45.909Z,99.90
2024-02-13T09:02:12.222Z,99.90
2024-02-13T09:04:38.770Z,99.90
2024-02-13T09:07:05.848Z,99.80
2024-02-13T09:09:33.247Z,99.20
2024-02-13T09:11:59.978Z,97.80
2024-02-13T09:14:26.265Z,96.20
2024-02-13T09:16:52.592Z,95.90
2024-02-13T09:19:18.848Z,94.70
2024-02-13T09:21:45.139Z,94.00
2024-02-13T09:24:12.553Z,93.90
2024-02-13T09:26:39.334Z,94.00
2024-02-13T09:29:06.081Z,93.50
2024-02-13T09:31:33.705Z,92.40
2024-02-13T09:34:01.288Z,90.90
2024-02-13T09:36:27.679Z,90.70
2024-02-13T09:38:54.413Z,93.30
2024-02-13T09:41:21.497Z,90.10
2024-02-13T09:43:50.294Z,89.60
2024-02-13T09:46:17.876Z,85.70
2024-02-13T09:48:48.420Z,88.30
2024-02-13T09:51:19.259Z,88.80
2024-02-13T09:53:50.647Z,89.60
2024-02-13T09:56:17.926Z,89.20
2024-02-13T09:58:48.227Z,80.60
2024-02-13T10:01:15.288Z,83.00
2024-02-13T10:03:42.036Z,84.00
2024-02-13T10:06:08.579Z,82.80
2024-02-13T10:08:38.323Z,82.30
2024-02-13T10:11:06.617Z,79.00
2024-02-13T10:13:42.110Z,80.00
2024-02-13T10:16:26.846Z,81.20
2024-02-13T10:18:54.769Z,78.00
2024-02-13T10:21:25.217Z,85.70
2024-02-13T10:23:54.127Z,83.60
2024-02-13T10:26:23.010Z,83.50
2024-02-13T10:28:55.098Z,85.00
2024-02-13T10:31:25.813Z,85.40
2024-02-13T10:33:52.637Z,85.20
2024-02-13T10:36:19.426Z,84.50
2024-02-13T10:38:48.223Z,83.40
2024-02-13T10:41:22.079Z,83.30
2024-02-13T10:43:51.254Z,85.00
2024-02-13T10:46:19.596Z,85.10
2024-02-13T10:49:08.640Z,85.30
2024-02-13T10:51:37.622Z,86.20
2024-02-13T10:54:07.703Z,85.10
2024-02-13T10:56:35.528Z,86.80
2024-02-13T10:59:02.119Z,87.30
2024-02-13T11:01:28.465Z,86.70
2024-02-13T11:03:57.982Z,85.80
2024-02-13T11:06:25.199Z,87.30
2024-02-13T11:08:51.906Z,87.10
2024-02-13T11:11:21.845Z,87.50
2024-02-13T11:13:52.968Z,84.40
2024-02-13T11:16:22.597Z,82.60
2024-02-13T11:18:50.841Z,83.50
2024-02-13T11:21:27.323Z,81.70
2024-02-13T11:23:59.841Z,80.80
2024-02-13T11:26:35.926Z,78.90
2024-02-13T11:29:18.754Z,78.30
2024-02-13T11:31:58.361Z,77.60
2024-02-13T11:34:41.790Z,76.60
2024-02-13T11:37:19.583Z,75.70
2024-02-13T11:39:49.453Z,76.40
2024-02-13T11:42:20.101Z,77.00
2024-02-13T11:44:49.326Z,77.10
2024-02-13T11:47:24.973Z,77.20
2024-02-13T11:49:51.659Z,75.90
2024-02-13T11:52:21.570Z,74.90
2024-02-13T11:54:49.131Z,75.40
2024-02-13T11:57:18.198Z,75.30
2024-02-13T11:59:55.063Z,75.20
2024-02-13T12:02:21.277Z,76.90
2024-02-13T12:04:48.624Z,78.40
2024-02-13T12:07:15.294Z,78.10
2024-02-13T12:09:41.977Z,77.30
2024-02-13T12:12:09.621Z,77.70
2024-02-13T12:14:36.449Z,78.40
2024-02-13T12:17:08.223Z,77.00
2024-02-13T12:19:38.830Z,78.00
2024-02-13T12:22:05.585Z,77.30
2024-02-13T12:24:32.457Z,78.50
2024-02-13T12:26:58.933Z,78.60
2024-02-13T12:29:25.173Z,76.50
2024-02-13T12:31:51.288Z,79.10
2024-02-13T12:34:19.454Z,79.30
2024-02-13T12:36:45.834Z,78.70
2024-02-13T12:39:20.678Z,78.70
2024-02-13T12:41:47.572Z,78.30
2024-02-13T12:44:14.163Z,78.80
2024-02-13T12:46:41.189Z,79.80
2024-02-13T12:49:07.794Z,80.40
2024-02-13T12:51:34.305Z,80.00
2024-02-13T12:54:05.400Z,79.70
2024-02-13T12:56:32.138Z,79.00
2024-02-13T12:58:58.330Z,77.70
2024-02-13T13:01:25.267Z,79.40
2024-02-13T13:03:51.512Z,78.40
2024-02-13T13:06:20.517Z,78.50
2024-02-13T13:08:47.902Z,78.50
2024-02-13T13:11:22.996Z,79.40
2024-02-13T13:13:49.144Z,79.00
2024-02-13T13:16:15.285Z,78.40
2024-02-13T13:18:41.523Z,77.70
2024-02-13T13:21:08.537Z,78.10
2024-02-13T13:23:35.450Z,78.40
2024-02-13T13:26:01.748Z,79.40
2024-02-13T13:28:30.042Z,79.50
2024-02-13T13:31:01.368Z,79.20
2024-02-13T13:33:31.425Z,80.30
2024-02-13T13:35:58.986Z,80.20
2024-02-13T13:38:28.963Z,79.30
2024-02-13T13:40:55.569Z,78.70
2024-02-13T13:43:21.690Z,78.10
2024-02-13T13:45:52.170Z,78.50
2024-02-13T13:48:19.392Z,78.20
2024-02-13T13:50:45.700Z,78.50
2024-02-13T13:53:11.964Z,78.40
2024-02-13T13:55:38.486Z,78.00
2024-02-13T13:58:05.091Z,79.10
2024-02-13T14:00:32.984Z,78.30
2024-02-13T14:03:03.100Z,79.00
2024-02-13T14:05:34.300Z,78.30
2024-02-13T14:08:04.394Z,78.60
2024-02-13T14:10:31.089Z,79.50
2024-02-13T14:12:57.760Z,79.90
2024-02-13T14:15:26.893Z,80.30
2024-02-13T14:17:53.135Z,81.00
2024-02-13T14:20:20.885Z,79.70
2024-02-13T14:22:47.824Z,79.60
2024-02-13T14:25:14.049Z,80.50
2024-02-13T14:27:40.294Z,80.80
2024-02-13T14:30:08.061Z,81.30
2024-02-13T14:32:34.315Z,80.50
2024-02-13T14:35:01.031Z,80.60
2024-02-13T14:37:27.315Z,80.40
2024-02-13T14:39:53.680Z,80.40
2024-02-13T14:42:19.944Z,80.60
2024-02-13T14:44:46.139Z,80.30
2024-02-13T14:47:12.297Z,80.40
2024-02-13T14:49:39.404Z,80.80
2024-02-13T14:52:05.836Z,80.30
2024-02-13T14:54:33.594Z,81.00
2024-02-13T14:57:04.086Z,81.20
2024-02-13T14:59:30.379Z,81.40
2024-02-13T15:01:57.317Z,81.60
2024-02-13T15:04:23.669Z,81.70
2024-02-13T15:06:50.885Z,81.60
2024-02-13T15:09:18.974Z,81.90
2024-02-13T15:11:48.432Z,82.50
2024-02-13T15:14:14.811Z,82.90
2024-02-13T15:16:41.074Z,82.90
2024-02-13T15:19:07.365Z,83.00
2024-02-13T15:21:33.868Z,83.50
2024-02-13T15:24:00.555Z,83.70
2024-02-13T15:26:29.148Z,84.00
2024-02-13T15:28:55.403Z,84.10
2024-02-13T15:31:22.573Z,84.70
2024-02-13T15:33:49.720Z,84.20
2024-02-13T15:36:39.007Z,84.50
2024-02-13T15:39:23.574Z,85.60
2024-02-13T15:42:08.545Z,86.80
2024-02-13T15:44:53.337Z,86.70
2024-02-13T15:47:21.174Z,86.90
2024-02-13T15:49:49.982Z,88.00
2024-02-13T15:52:16.215Z,87.00
2024-02-13T15:54:42.522Z,86.40
2024-02-13T15:57:09.677Z,86.70
2024-02-13T15:59:36.576Z,86.50
2024-02-13T16:02:04.423Z,86.30
2024-02-13T16:04:31.108Z,86.40
2024-02-13T16:06:58.504Z,86.90
2024-02-13T16:09:27.656Z,86.50
2024-02-13T16:11:53.945Z,86.10
2024-02-13T16:14:20.315Z,85.50
2024-02-13T16:16:46.859Z,85.70
2024-02-13T16:19:13.481Z,86.60
2024-02-13T16:21:39.774Z,86.80
2024-02-13T16:24:06.509Z,85.50
2024-02-13T16:26:32.962Z,85.60
2024-02-13T16:28:59.418Z,85.50
2024-02-13T16:31:26.210Z,85.70
2024-02-13T16:33:54.183Z,86.70
2024-02-13T16:36:21.950Z,87.80
2024-02-13T16:38:48.476Z,87.20
2024-02-13T16:41:19.569Z,86.60
2024-02-13T16:43:48.649Z,86.70
2024-02-13T16:46:20.702Z,86.90
2024-02-13T16:48:49.727Z,87.10
2024-02-13T16:51:18.952Z,87.70
2024-02-13T16:53:45.528Z,87.00
2024-02-13T16:56:13.688Z,87.20
2024-02-13T16:58:41.252Z,87.30
2024-02-13T17:01:07.614Z,87.60
2024-02-13T17:03:33.910Z,87.50
2024-02-13T17:06:03.929Z,88.00
2024-02-13T17:08:30.589Z,88.70
2024-02-13T17:10:56.968Z,88.60
2024-02-13T17:13:23.659Z,88.80
2024-02-13T17:15:49.831Z,88.60
2024-02-13T17:18:15.981Z,89.10
2024-02-13T17:20:45.612Z,89.00
2024-02-13T17:23:12.095Z,89.60
2024-02-13T17:25:39.016Z,90.00
2024-02-13T17:28:05.244Z,90.10
2024-02-13T17:30:32.083Z,90.20
2024-02-13T17:33:02.770Z,90.50
2024-02-13T17:35:31.421Z,91.00
2024-02-13T17:37:58.130Z,91.20
2024-02-13T17:40:26.273Z,91.40
2024-02-13T17:42:52.518Z,91.60
2024-02-13T17:45:18.831Z,91.60
2024-02-13T17:47:45.146Z,91.80
2024-02-13T17:50:11.898Z,92.20
2024-02-13T17:52:39.197Z,92.30
2024-02-13T17:55:08.753Z,92.80
2024-02-13T17:57:38.712Z,93.20
2024-02-13T18:00:06.955Z,93.10
2024-02-13T18:02:38.240Z,93.50
2024-02-13T18:05:05.462Z,93.30
2024-02-13T18:07:34.149Z,93.30
2024-02-13T18:10:00.349Z,93.20
2024-02-13T18:12:26.754Z,93.20
2024-02-13T18:14:52.961Z,93.30
2024-02-13T18:17:19.099Z,93.60
2024-02-13T18:19:45.344Z,93.70
2024-02-13T18:22:12.572Z,94.20
2024-02-13T18:24:41.548Z,94.30
2024-02-13T18:27:10.973Z,94.30
2024-02-13T18:29:37.345Z,94.00
2024-02-13T18:32:04.146Z,94.40
2024-02-13T18:34:30.265Z,94.60
2024-02-13T18:36:56.405Z,95.10
2024-02-13T18:39:22.475Z,95.20
2024-02-13T18:41:48.596Z,95.20
2024-02-13T18:44:14.734Z,95.20
2024-02-13T18:46:42.545Z,95.00
2024-02-13T18:49:10.519Z,95.40
2024-02-13T18:51:36.713Z,95.70
2024-02-13T18:54:03.017Z,95.50
2024-02-13T18:56:38.805Z,95.40
2024-02-13T18:59:06.305Z,95.90
2024-02-13T19:01:32.469Z,96.20
2024-02-13T19:03:58.562Z,96.20
2024-02-13T19:06:24.964Z,96.00
2024-02-13T19:08:51.149Z,96.60
2024-02-13T19:11:17.361Z,96.90
2024-02-13T19:13:44.693Z,97.30
2024-02-13T19:16:10.806Z,97.40
2024-02-13T19:18:38.001Z,97.40
2024-02-13T19:21:04.443Z,97.60
2024-02-13T19:23:30.696Z,98.50
2024-02-13T19:25:57.483Z,98.00
2024-02-13T19:28:25.754Z,98.20
2024-02-13T19:30:53.142Z,97.70
2024-02-13T19:33:19.437Z,97.70
2024-02-13T19:35:46.369Z,98.60
2024-02-13T19:38:17.324Z,98.30
2024-02-13T19:40:43.843Z,98.40
2024-02-13T19:43:10.193Z,98.40
2024-02-13T19:45:38.842Z,98.60
2024-02-13T19:48:06.099Z,98.20
2024-02-13T19:50:32.311Z,99.10
2024-02-13T19:52:58.549Z,98.90
2024-02-13T19:55:24.656Z,98.80
2024-02-13T19:57:50.960Z,99.20
2024-02-13T20:00:17.807Z,99.40
2024-02-13T20:02:44.533Z,99.00
2024-02-13T20:05:10.713Z,98.90
2024-02-13T20:07:38.200Z,99.70
2024-02-13T20:10:06.346Z,99.60
2024-02-13T20:12:32.775Z,99.50
2024-02-13T20:14:59.117Z,99.90
2024-02-13T20:17:25.471Z,99.50
2024-02-13T20:19:52.804Z,99.90
2024-02-13T20:22:19.863Z,99.90
2024-02-13T20:24:46.076Z,99.90
2024-02-13T20:27:12.942Z,99.90
2024-02-13T20:29:39.051Z,99.90
2024-02-13T20:32:05.272Z,99.90
2024-02-13T20:34:31.597Z,99.80
2024-02-13T20:36:59.513Z,99.90
2024-02-13T20:39:26.415Z,99.90
2024-02-13T20:41:56.979Z,99.90
2024-02-13T20:44:23.279Z,99.90
2024-02-13T20:46:49.523Z,99.90
2024-02-13T20:49:15.978Z,99.90
2024-02-13T20:51:45.116Z,99.90
2024-02-13T20:54:15.916Z,99.90
2024-02-13T20:56:46.537Z,99.90
2024-02-13T20:59:12.978Z,99.90
2024-02-13T21:01:39.080Z,99.90
2024-02-13T21:04:09.688Z,99.90
2024-02-13T21:06:39.891Z,99.90
2024-02-13T21:09:07.511Z,99.90
2024-02-13T21:11:34.794Z,99.90
2024-02-13T21:14:01.292Z,99.90
2024-02-13T21:16:30.128Z,99.90
2024-02-13T21:18:57.124Z,99.90
2024-02-13T21:21:42.033Z,99.90
2024-02-13T21:24:08.220Z,99.90
2024-02-13T21:26:39.524Z,99.90
2024-02-13T21:29:06.163Z,99.90
2024-02-13T21:31:32.547Z,99.90
2024-02-13T21:34:00.259Z,99.90
2024-02-13T21:36:26.920Z,99.90
2024-02-13T21:38:53.130Z,99.90
2024-02-13T21:41:19.326Z,99.90
2024-02-13T21:43:45.447Z,99.90
2024-02-13T21:46:14.519Z,99.90
2024-02-13T21:48:41.039Z,99.90
2024-02-13T21:51:07.549Z,99.90
2024-02-13T21:53:34.446Z,99.90
2024-02-13T21:56:00.671Z,99.90
2024-02-13T21:58:26.786Z,99.90
2024-02-13T22:00:53.495Z,99.90
2024-02-13T22:03:19.631Z,99.90
2024-02-13T22:05:45.861Z,99.90
2024-02-13T22:08:11.981Z,99.90
2024-02-13T22:10:38.683Z,99.90
2024-02-13T22:13:06.939Z,99.90
2024-02-13T22:15:33.822Z,99.90
2024-02-13T22:18:01.054Z,99.90
2024-02-13T22:20:29.507Z,99.90
2024-02-13T22:22:55.599Z,99.90
2024-02-13T22:25:21.801Z,99.90
2024-02-13T22:27:47.852Z,99.90
2024-02-13T22:30:14.162Z,99.90
2024-02-13T22:32:40.461Z,99.90
2024-02-13T22:35:06.847Z,99.90
2024-02-13T22:37:33.085Z,99.90
2024-02-13T22:39:59.251Z,99.90
2024-02-13T22:42:25.350Z,99.90
2024-02-13T22:44:51.654Z,99.90
2024-02-13T22:47:18.106Z,99.90
2024-02-13T22:49:45.239Z,99.90
2024-02-13T22:52:11.336Z,99.90
2024-02-13T22:54:37.475Z,99.90
2024-02-13T22:57:04.473Z,99.90
2024-02-13T22:59:31.548Z,99.90
2024-02-13T23:01:58.026Z,99.90
2024-02-13T23:04:24.215Z,99.90
2024-02-13T23:06:50.556Z,99.90
2024-02-13T23:09:17.072Z,99.90
2024-02-13T23:11:43.902Z,99.90
2024-02-13T23:14:11.189Z,99.90
2024-02-13T23:16:38.792Z,99.90
2024-02-13T23:19:05.049Z,99.90
2024-02-13T23:21:31.730Z,99.90
2024-02-13T23:23:57.806Z,99.90
2024-02-13T23:26:24.045Z,99.90
2024-02-13T23:28:56.455Z,99.90
2024-02-13T23:31:24.133Z,99.90
2024-02-13T23:33:50.437Z,99.90
2024-02-13T23:36:16.723Z,99.90
2024-02-13T23:38:43.783Z,99.90
2024-02-13T23:41:09.981Z,99.90
2024-02-13T23:43:36.268Z,99.90
2024-02-13T23:46:02.401Z,99.90
2024-02-13T23:48:29.037Z,99.90
2024-02-13T23:50:55.230Z,99.90
2024-02-13T23:53:22.050Z,99.90
2024-02-13T23:55:48.217Z,99.90
2024-02-13T23:58:14.369Z,99.90
